Time;durP1;ratioP1;P1;durP2;ratioP2;P2;SDS_P1;SDS_P2;PMS_P1;PMS_P2;Temp;Humidity;BMP_temperature;BMP_pressure;BME280_temperature;BME280_humidity;BME280_pressure;Samples;Min_cycle;Max_cycle;Signal;HPM_P1;HPM_P2
2022/06/20 00:01:24;;;;;;;3.77;3.37;;;15.30;99.90;;;;;;5032919;28;21158;-36
2022/06/20 00:03:51;;;;;;;7.00;3.37;;;15.40;99.90;;;;;;5033265;28;20186;-37
2022/06/20 00:06:19;;;;;;;5.23;4.00;;;15.40;99.90;;;;;;5033237;28;20470;-37
2022/06/20 00:08:47;;;;;;;2.97;2.77;;;15.40;99.90;;;;;;5032464;28;20516;-36
2022/06/20 00:11:21;;;;;;;4.53;3.63;;;15.50;99.90;;;;;;5033035;28;20498;-37
2022/06/20 00:13:49;;;;;;;3.97;3.57;;;15.40;99.90;;;;;;5032812;28;20482;-37
2022/06/20 00:16:17;;;;;;;3.90;3.57;;;15.50;99.90;;;;;;5033079;28;20424;-37
2022/06/20 00:18:44;;;;;;;4.30;3.30;;;15.50;99.90;;;;;;5032476;28;20423;-37
2022/06/20 00:21:13;;;;;;;4.50;3.30;;;15.50;99.90;;;;;;5032840;28;20497;-37
2022/06/20 00:23:39;;;;;;;4.77;3.53;;;15.40;99.90;;;;;;5032992;28;20425;-37
2022/06/20 00:26:04;;;;;;;4.33;3.10;;;15.40;99.90;;;;;;5032755;28;20425;-37
2022/06/20 00:28:31;;;;;;;4.87;3.17;;;15.40;99.90;;;;;;5032219;28;20252;-37
2022/06/20 00:30:57;;;;;;;3.53;3.23;;;15.40;99.90;;;;;;5032864;28;20178;-37
2022/06/20 00:33:23;;;;;;;4.27;3.87;;;15.50;99.90;;;;;;5032600;28;20491;-37
2022/06/20 00:35:48;;;;;;;3.70;3.40;;;15.40;99.90;;;;;;5031274;28;20421;-37
2022/06/20 00:38:18;;;;;;;7.80;4.53;;;15.50;99.90;;;;;;5032034;28;20182;-37
2022/06/20 00:40:51;;;;;;;4.87;4.40;;;15.50;99.90;;;;;;5030818;28;20209;-36
2022/06/20 00:43:53;;;;;;;8.03;4.70;;;15.40;99.90;;;;;;5032704;28;20449;-36
2022/06/20 00:46:34;;;;;;;7.33;5.80;;;15.40;99.90;;;;;;4989551;28;20429;-37
2022/06/20 00:49:10;;;;;;;5.57;5.00;;;15.50;99.90;;;;;;5021237;28;20432;-37
2022/06/20 00:51:52;;;;;;;9.60;6.50;;;15.40;99.90;;;;;;5038052;28;20420;-37
2022/06/20 00:54:27;;;;;;;5.67;5.17;;;15.40;99.90;;;;;;5031029;28;20417;-37
2022/06/20 00:57:01;;;;;;;6.13;5.53;;;15.30;99.90;;;;;;5031748;28;20416;-37
2022/06/20 00:59:34;;;;;;;6.63;5.40;;;15.10;99.90;;;;;;5031837;28;20447;-37
2022/06/20 01:02:02;;;;;;;5.23;4.73;;;15.10;99.90;;;;;;5032236;28;20456;-37
2022/06/20 01:04:45;;;;;;;6.37;5.53;;;15.00;99.90;;;;;;5031984;28;20528;-36
2022/06/20 01:07:26;;;;;;;5.83;5.10;;;14.90;99.90;;;;;;5031494;28;20451;-37
2022/06/20 01:09:56;;;;;;;5.67;4.60;;;15.00;99.90;;;;;;5031647;28;20417;-37
2022/06/20 01:12:25;;;;;;;5.90;4.70;;;15.00;99.90;;;;;;5032035;28;20421;-37
2022/06/20 01:14:50;;;;;;;6.13;4.53;;;15.00;99.90;;;;;;5031799;28;20456;-37
2022/06/20 01:17:36;;;;;;;7.90;4.67;;;15.10;99.90;;;;;;5031392;28;20460;-37
2022/06/20 01:20:08;;;;;;;5.73;4.50;;;15.00;99.90;;;;;;5031821;28;20570;-37
2022/06/20 01:23:02;;;;;;;6.07;4.40;;;15.00;99.90;;;;;;5031503;28;20484;-37
2022/06/20 01:25:47;;;;;;;4.87;4.30;;;15.00;99.90;;;;;;5031513;28;20511;-37
2022/06/20 01:28:18;;;;;;;5.53;4.53;;;15.00;99.90;;;;;;5031240;28;20459;-37
2022/06/20 01:30:47;;;;;;;5.53;4.23;;;15.00;99.90;;;;;;5031284;28;20425;-37
2022/06/20 01:33:15;;;;;;;7.33;4.07;;;15.00;99.90;;;;;;5031800;28;20432;-37
2022/06/20 01:38:27;;;;;;;5.90;5.30;;;14.80;99.90;;;;;;5031002;28;20888;-37
2022/06/20 01:43:58;;;;;;;11.63;6.00;;;14.80;99.90;;;;;;5028685;28;20468;-37
2022/06/20 01:46:27;;;;;;;9.73;6.17;;;14.70;99.90;;;;;;5026213;28;20433;-37
2022/06/20 01:48:57;;;;;;;7.23;6.30;;;14.70;99.90;;;;;;5034853;28;20428;-37
2022/06/20 01:51:42;;;;;;;6.90;5.50;;;14.60;99.90;;;;;;5038401;28;20444;-37
2022/06/20 01:54:09;;;;;;;6.57;5.80;;;14.60;99.90;;;;;;5031556;28;20874;-37
2022/06/20 01:56:36;;;;;;;6.73;6.10;;;14.60;99.90;;;;;;5030546;28;20866;-37
2022/06/20 01:59:11;;;;;;;12.80;6.30;;;14.70;99.90;;;;;;5030956;28;20432;-37
2022/06/20 02:01:38;;;;;;;7.10;5.83;;;14.80;99.90;;;;;;5030729;28;20979;-37
2022/06/20 02:04:06;;;;;;;6.67;5.73;;;14.80;99.90;;;;;;5031053;28;20527;-37
2022/06/20 02:06:33;;;;;;;7.43;5.97;;;14.90;99.90;;;;;;5030460;28;20421;-37
2022/06/20 02:09:00;;;;;;;8.07;6.00;;;14.80;99.90;;;;;;5031122;28;20429;-37
2022/06/20 02:11:33;;;;;;;7.63;5.70;;;14.80;99.90;;;;;;5029609;28;20433;-37
2022/06/20 02:14:04;;;;;;;6.90;6.07;;;14.90;99.90;;;;;;5030992;28;20425;-37
2022/06/20 02:16:34;;;;;;;6.87;6.17;;;14.80;99.90;;;;;;5030650;28;21107;-37
2022/06/20 02:19:04;;;;;;;7.00;6.27;;;14.90;99.90;;;;;;5030686;28;20453;-37
2022/06/20 02:21:33;;;;;;;7.13;6.17;;;14.80;99.90;;;;;;5030781;28;20514;-37
2022/06/20 02:24:09;;;;;;;8.33;6.50;;;14.80;99.90;;;;;;5030653;28;20436;-37
2022/06/20 02:26:38;;;;;;;8.13;5.83;;;14.80;99.90;;;;;;5029066;28;20417;-37
2022/06/20 02:29:09;;;;;;;8.47;5.83;;;14.90;99.90;;;;;;5030200;28;20449;-37
2022/06/20 02:31:35;;;;;;;6.50;5.77;;;14.90;99.90;;;;;;5030757;28;20471;-37
2022/06/20 02:34:02;;;;;;;7.10;5.30;;;14.80;99.90;;;;;;5030456;28;20425;-37
2022/06/20 02:36:29;;;;;;;6.83;6.13;;;14.80;99.90;;;;;;5029152;28;20425;-37
2022/06/20 02:38:56;;;;;;;8.10;6.93;;;14.80;99.90;;;;;;5029958;28;20515;-37
2022/06/20 02:41:23;;;;;;;7.47;6.87;;;14.70;99.90;;;;;;5029061;28;20489;-37
2022/06/20 02:44:14;;;;;;;7.17;6.47;;;14.60;99.90;;;;;;5030004;28;21195;-37
2022/06/20 02:46:42;;;;;;;7.40;6.70;;;14.60;99.90;;;;;;5029765;28;20456;-37
2022/06/20 02:49:09;;;;;;;8.93;6.60;;;14.70;99.90;;;;;;5036180;28;20442;-37
2022/06/20 02:51:44;;;;;;;9.00;6.00;;;14.70;99.90;;;;;;5036775;28;20782;-37
2022/06/20 02:54:13;;;;;;;8.90;6.43;;;14.50;99.90;;;;;;5030002;28;20439;-37
2022/06/20 02:56:48;;;;;;;10.53;6.30;;;14.50;99.90;;;;;;5028397;28;20433;-37
2022/06/20 02:59:18;;;;;;;8.43;7.20;;;14.40;99.90;;;;;;5030133;28;20420;-37
2022/06/20 03:02:01;;;;;;;6.50;6.00;;;14.30;99.90;;;;;;5029991;28;20485;-37
2022/06/20 03:04:30;;;;;;;6.60;6.00;;;14.30;99.90;;;;;;5029880;28;20481;-37
2022/06/20 03:07:03;;;;;;;8.80;6.63;;;14.30;99.90;;;;;;5029596;28;20435;-36
2022/06/20 03:09:35;;;;;;;15.60;7.43;;;14.30;99.90;;;;;;5029398;28;20475;-37
2022/06/20 03:12:05;;;;;;;8.27;7.10;;;14.30;99.90;;;;;;5030243;28;20433;-37
2022/06/20 03:14:53;;;;;;;7.93;7.00;;;14.30;99.90;;;;;;5029780;28;20452;-37
2022/06/20 03:17:22;;;;;;;8.50;7.20;;;14.10;99.90;;;;;;5029540;28;20429;-36
2022/06/20 03:19:57;;;;;;;7.73;6.17;;;14.10;99.90;;;;;;5029903;28;20432;-36
2022/06/20 03:22:28;;;;;;;7.83;6.83;;;14.10;99.90;;;;;;5029757;28;20475;-37
2022/06/20 03:24:55;;;;;;;8.00;6.10;;;14.10;99.90;;;;;;5029828;28;20495;-37
2022/06/20 03:27:26;;;;;;;7.10;5.97;;;14.20;99.90;;;;;;5029064;28;20436;-37
2022/06/20 03:29:59;;;;;;;6.00;5.40;;;14.20;99.90;;;;;;5028544;28;20443;-37
2022/06/20 03:32:26;;;;;;;6.07;4.50;;;14.20;99.90;;;;;;5028549;28;20938;-37
2022/06/20 03:34:53;;;;;;;4.90;4.50;;;14.10;99.90;;;;;;5029677;28;20496;-37
2022/06/20 03:37:20;;;;;;;9.67;5.07;;;14.00;99.90;;;;;;5029172;28;20424;-36
2022/06/20 03:39:48;;;;;;;6.73;4.97;;;13.90;99.90;;;;;;5029632;28;20451;-36
2022/06/20 03:42:14;;;;;;;4.87;4.30;;;13.80;99.90;;;;;;5028332;28;20957;-37
2022/06/20 03:44:45;;;;;;;7.20;4.17;;;13.90;99.90;;;;;;5029780;28;20433;-36
2022/06/20 03:47:38;;;;;;;5.10;4.47;;;13.90;99.90;;;;;;5029078;28;20425;-37
2022/06/20 03:50:10;;;;;;;5.97;4.40;;;13.90;99.90;;;;;;5036003;28;20933;-37
2022/06/20 03:53:02;;;;;;;7.63;5.30;;;14.00;99.90;;;;;;5029619;28;20440;-37
2022/06/20 03:55:33;;;;;;;9.27;5.17;;;13.90;99.90;;;;;;5005454;28;20451;-37
2022/06/20 03:58:26;;;;;;;5.80;4.67;;;13.90;99.90;;;;;;5029077;28;20460;-37
2022/06/20 04:01:05;;;;;;;6.20;4.33;;;13.90;99.90;;;;;;5029142;28;20667;-37
2022/06/20 04:04:11;;;;;;;6.30;5.63;;;14.00;99.90;;;;;;5029776;28;20425;-37
2022/06/20 04:06:43;;;;;;;5.60;3.80;;;13.90;99.90;;;;;;5026698;28;20436;-37
2022/06/20 04:12:43;;;;;;;7.00;3.83;;;13.90;99.90;;;;;;5029543;28;20429;-37
2022/06/20 04:15:23;;;;;;;5.60;4.30;;;13.90;99.90;;;;;;5029467;28;20460;-37
2022/06/20 04:20:53;;;;;;;6.43;3.80;;;13.80;99.90;;;;;;5030701;28;20434;-36
2022/06/20 04:23:30;;;;;;;4.93;3.90;;;13.80;99.90;;;;;;5033115;28;20433;-37
2022/06/20 04:26:14;;;;;;;5.47;4.20;;;13.90;99.90;;;;;;5032699;28;21025;-36
2022/06/20 04:28:39;;;;;;;6.07;3.93;;;13.70;99.90;;;;;;5032279;28;20551;-37
2022/06/20 04:31:24;;;;;;;5.17;4.67;;;13.80;99.90;;;;;;5032879;28;20511;-37
2022/06/20 04:34:09;;;;;;;6.20;4.10;;;13.70;99.90;;;;;;5032829;28;20516;-37
2022/06/20 04:36:43;;;;;;;6.30;4.30;;;13.80;99.90;;;;;;5032384;28;20413;-37
2022/06/20 04:39:24;;;;;;;5.20;3.80;;;13.90;99.90;;;;;;5032736;28;20463;-36
2022/06/20 04:42:17;;;;;;;5.73;4.20;;;13.90;99.90;;;;;;5030189;28;20453;-37
2022/06/20 04:44:49;;;;;;;5.83;4.33;;;13.90;99.90;;;;;;5013057;28;20448;-37
2022/06/20 04:47:26;;;;;;;6.80;4.40;;;13.90;99.90;;;;;;5028198;28;20821;-36
2022/06/20 04:49:52;;;;;;;6.80;4.53;;;13.80;99.90;;;;;;5040777;28;20560;-37
2022/06/20 04:52:23;;;;;;;6.23;4.97;;;13.70;99.90;;;;;;5031135;28;20452;-36
2022/06/20 04:54:49;;;;;;;8.20;5.03;;;13.70;99.90;;;;;;5036282;28;20190;-37
2022/06/20 04:57:15;;;;;;;10.20;5.60;;;13.80;99.90;;;;;;5023678;28;21041;-37
2022/06/20 04:59:42;;;;;;;6.73;4.80;;;13.70;99.90;;;;;;5032288;28;20755;-37
2022/06/20 05:02:15;;;;;;;8.80;5.87;;;13.60;99.90;;;;;;5032151;28;20885;-36
2022/06/20 05:04:43;;;;;;;10.07;5.30;;;13.70;99.90;;;;;;5032282;28;20520;-37
2022/06/20 05:07:34;;;;;;;9.03;4.40;;;13.70;99.90;;;;;;5031655;28;20413;-37
2022/06/20 05:10:03;;;;;;;6.57;4.70;;;13.70;99.90;;;;;;5031873;28;20503;-37
2022/06/20 05:13:10;;;;;;;7.63;4.73;;;13.70;99.90;;;;;;5030748;28;20789;-37
2022/06/20 05:15:46;;;;;;;7.40;4.33;;;13.80;99.90;;;;;;4989673;28;20431;-37
2022/06/20 05:18:39;;;;;;;7.17;4.50;;;13.80;99.90;;;;;;5015276;28;20443;-37
2022/06/20 05:21:31;;;;;;;5.63;4.37;;;13.90;99.90;;;;;;5030945;28;20428;-37
2022/06/20 05:24:10;;;;;;;6.40;4.07;;;13.90;99.90;;;;;;5024922;28;20425;-37
2022/06/20 05:26:40;;;;;;;7.43;4.37;;;14.00;99.90;;;;;;5030262;28;20806;-37
2022/06/20 05:29:11;;;;;;;4.93;4.10;;;14.00;99.90;;;;;;5031553;28;20420;-36
2022/06/20 05:31:44;;;;;;;4.37;3.70;;;14.10;99.90;;;;;;5031424;28;20974;-37
2022/06/20 05:34:16;;;;;;;5.33;4.73;;;14.10;99.90;;;;;;5031597;28;20508;-37
2022/06/20 05:36:42;;;;;;;6.90;4.50;;;14.10;99.90;;;;;;5030850;28;20417;-37
2022/06/20 05:39:17;;;;;;;6.67;5.00;;;14.00;99.90;;;;;;5030136;28;20419;-37
2022/06/20 05:41:43;;;;;;;9.53;4.43;;;14.00;99.90;;;;;;5031649;28;20201;-37
2022/06/20 05:44:12;;;;;;;7.17;5.37;;;14.00;99.90;;;;;;5031357;28;20421;-37
2022/06/20 05:46:45;;;;;;;7.87;4.60;;;14.00;99.90;;;;;;5030774;28;20429;-37
2022/06/20 05:49:16;;;;;;;5.73;4.53;;;14.00;99.90;;;;;;5019692;28;21200;-37
2022/06/20 05:51:44;;;;;;;5.77;4.40;;;14.00;99.90;;;;;;5025606;28;20511;-37
2022/06/20 05:54:16;;;;;;;6.30;4.77;;;14.00;99.90;;;;;;5031124;28;20421;-37
2022/06/20 05:57:00;;;;;;;8.50;4.40;;;14.00;99.90;;;;;;5030637;28;20500;-37
2022/06/20 05:59:28;;;;;;;6.17;4.33;;;14.00;99.90;;;;;;5030839;28;21052;-37
2022/06/20 06:02:22;;;;;;;6.40;3.50;;;14.00;99.90;;;;;;5030794;28;20464;-36
2022/06/20 06:05:26;;;;;;;4.47;3.40;;;14.10;99.90;;;;;;5012336;28;20521;-37
2022/06/20 06:08:11;;;;;;;6.63;3.80;;;14.20;99.90;;;;;;4990087;28;20430;-37
2022/06/20 06:10:48;;;;;;;9.03;4.77;;;14.10;99.90;;;;;;4987875;28;20530;-37
2022/06/20 06:13:33;;;;;;;7.73;3.90;;;14.10;99.90;;;;;;5008338;28;20439;-37
2022/06/20 06:19:23;;;;;;;5.50;3.50;;;14.00;99.90;;;;;;5029713;28;20459;-37
2022/06/20 06:21:51;;;;;;;8.77;4.00;;;14.10;99.90;;;;;;5020598;28;20835;-37
2022/06/20 06:24:20;;;;;;;9.23;4.10;;;14.00;99.90;;;;;;5022090;28;20425;-37
2022/06/20 06:26:48;;;;;;;5.77;4.43;;;14.00;99.90;;;;;;5021055;28;20445;-37
2022/06/20 06:29:23;;;;;;;10.60;4.00;;;14.00;99.90;;;;;;5028286;28;20433;-37
2022/06/20 06:31:54;;;;;;;6.23;3.83;;;14.00;99.90;;;;;;5030536;28;20424;-37
2022/06/20 06:34:28;;;;;;;8.70;4.30;;;14.10;99.90;;;;;;5030557;28;20429;-37
2022/06/20 06:37:08;;;;;;;9.13;4.30;;;14.10;99.90;;;;;;5023432;28;20486;-37
2022/06/20 06:40:03;;;;;;;12.10;4.33;;;14.00;99.90;;;;;;5023007;28;20853;-37
2022/06/20 06:42:29;;;;;;;10.17;4.30;;;14.00;99.90;;;;;;5025673;28;20465;-37
2022/06/20 06:44:56;;;;;;;6.50;4.00;;;14.00;99.90;;;;;;5030279;28;20436;-37
2022/06/20 06:47:42;;;;;;;8.60;4.13;;;14.10;99.90;;;;;;5029363;28;20282;-37
2022/06/20 06:50:39;;;;;;;5.30;3.57;;;14.10;99.90;;;;;;5030576;28;20479;-37
2022/06/20 06:53:17;;;;;;;10.23;3.90;;;14.10;99.90;;;;;;5024246;28;20448;-37
2022/06/20 06:55:49;;;;;;;6.70;4.43;;;14.20;99.90;;;;;;5022982;28;20752;-37
2022/06/20 06:58:25;;;;;;;5.67;4.10;;;14.20;99.90;;;;;;5022153;28;20796;-37
2022/06/20 07:00:55;;;;;;;6.93;4.00;;;14.30;99.90;;;;;;5026033;28;20440;-37
2022/06/20 07:03:32;;;;;;;5.80;4.63;;;14.20;99.90;;;;;;5024798;28;20433;-37
2022/06/20 07:06:06;;;;;;;8.03;4.90;;;14.20;99.90;;;;;;5030403;28;20453;-37
2022/06/20 07:08:42;;;;;;;9.63;5.07;;;14.20;99.90;;;;;;5029540;28;20830;-36
2022/06/20 07:11:14;;;;;;;8.70;4.87;;;14.30;99.90;;;;;;5029947;28;20412;-36
2022/06/20 07:14:01;;;;;;;8.27;4.53;;;14.40;99.90;;;;;;5030083;28;20579;-37
2022/06/20 07:16:43;;;;;;;7.67;3.80;;;14.50;99.90;;;;;;5028682;28;20514;-37
2022/06/20 07:19:12;;;;;;;7.40;4.27;;;14.50;99.90;;;;;;5029972;28;20417;-37
2022/06/20 07:21:40;;;;;;;10.87;4.23;;;14.50;99.90;;;;;;5028431;28;20477;-37
2022/06/20 07:24:12;;;;;;;7.40;4.03;;;14.40;99.90;;;;;;5029824;28;20559;-37
2022/06/20 07:26:45;;;;;;;7.10;3.50;;;14.50;99.90;;;;;;5029335;28;20421;-37
2022/06/20 07:29:25;;;;;;;6.30;3.30;;;14.60;99.90;;;;;;5029748;28;20932;-37
2022/06/20 07:31:59;;;;;;;6.27;3.50;;;14.60;99.90;;;;;;5029804;28;20915;-37
2022/06/20 07:34:38;;;;;;;6.40;3.73;;;14.60;99.90;;;;;;5029609;28;20428;-37
2022/06/20 07:37:33;;;;;;;5.80;3.13;;;14.70;99.90;;;;;;5027299;28;20416;-36
2022/06/20 07:40:09;;;;;;;7.40;4.13;;;14.80;99.90;;;;;;5025678;28;20452;-36
2022/06/20 07:42:48;;;;;;;11.43;3.77;;;14.90;99.90;;;;;;5029671;28;20464;-36
2022/06/20 07:45:28;;;;;;;11.17;3.80;;;15.00;99.90;;;;;;5029779;28;20439;-37
2022/06/20 07:47:58;;;;;;;6.10;4.07;;;15.10;99.90;;;;;;5028508;28;20803;-37
2022/06/20 07:50:49;;;;;;;11.83;5.37;;;15.10;99.90;;;;;;5029212;28;20414;-37
2022/06/20 07:53:27;;;;;;;6.90;4.00;;;15.10;99.90;;;;;;5029098;28;21108;-36
2022/06/20 07:55:59;;;;;;;8.67;4.20;;;15.30;99.90;;;;;;5032819;28;20463;-37
2022/06/20 07:58:31;;;;;;;8.17;3.80;;;15.40;99.90;;;;;;5032838;28;21200;-37
2022/06/20 08:01:00;;;;;;;5.13;3.63;;;15.50;99.90;;;;;;5033449;28;20830;-37
2022/06/20 08:03:36;;;;;;;8.90;4.80;;;15.60;99.90;;;;;;5032022;28;20484;-37
2022/06/20 08:06:21;;;;;;;6.60;4.40;;;15.60;99.90;;;;;;5033480;28;20416;-37
2022/06/20 08:08:52;;;;;;;7.17;3.87;;;15.70;99.90;;;;;;5032435;28;20489;-37
2022/06/20 08:11:40;;;;;;;6.77;4.17;;;15.80;99.90;;;;;;5033445;28;20425;-37
2022/06/20 08:14:10;;;;;;;6.50;4.07;;;15.90;99.90;;;;;;5033227;28;20452;-37
2022/06/20 08:16:37;;;;;;;9.73;3.17;;;16.20;99.90;;;;;;5032590;28;20768;-37
2022/06/20 08:19:03;;;;;;;5.77;3.60;;;16.30;99.90;;;;;;5032755;28;20831;-37
2022/06/20 08:21:34;;;;;;;3.93;2.83;;;16.40;99.90;;;;;;5031652;28;20460;-37
2022/06/20 08:24:15;;;;;;;6.17;2.63;;;16.50;99.90;;;;;;5032971;28;20417;-37
2022/06/20 08:26:50;;;;;;;4.10;2.00;;;16.50;99.90;;;;;;5032454;28;20479;-37
2022/06/20 08:29:23;;;;;;;6.80;2.97;;;16.70;99.90;;;;;;5032715;28;20435;-36
2022/06/20 08:31:52;;;;;;;3.67;2.53;;;16.70;99.90;;;;;;5032789;28;20755;-37
2022/06/20 08:34:25;;;;;;;4.60;2.80;;;16.90;99.90;;;;;;5014899;28;20982;-37
2022/06/20 08:37:01;;;;;;;3.83;2.50;;;17.20;99.90;;;;;;5032142;28;20430;-36
2022/06/20 08:39:33;;;;;;;5.47;2.80;;;17.50;99.90;;;;;;5032729;28;20455;-37
2022/06/20 08:42:23;;;;;;;5.40;3.27;;;17.70;99.90;;;;;;5032301;28;20454;-37
2022/06/20 08:45:08;;;;;;;6.27;3.20;;;17.60;99.90;;;;;;5032600;28;20413;-37
2022/06/20 08:47:52;;;;;;;5.93;3.37;;;17.40;99.90;;;;;;5030806;28;20818;-37
2022/06/20 08:50:45;;;;;;;5.97;4.00;;;17.20;99.90;;;;;;5045241;28;20461;-37
2022/06/20 08:53:48;;;;;;;5.93;4.30;;;16.80;99.90;;;;;;5031234;28;20425;-37
2022/06/20 08:56:32;;;;;;;4.33;3.70;;;16.50;99.90;;;;;;5032350;28;20420;-37
2022/06/20 08:59:18;;;;;;;5.17;3.90;;;16.50;99.90;;;;;;5032295;28;20425;-36
2022/06/20 09:02:10;;;;;;;9.23;3.80;;;16.50;99.90;;;;;;5032059;28;20461;-37
2022/06/20 09:05:00;;;;;;;6.73;3.87;;;16.50;99.90;;;;;;5004835;28;20422;-36
2022/06/20 09:07:28;;;;;;;6.83;4.37;;;17.00;99.90;;;;;;5031019;28;20531;-37
2022/06/20 09:10:26;;;;;;;5.60;3.57;;;17.30;99.90;;;;;;5032176;28;20912;-37
2022/06/20 09:13:19;;;;;;;3.43;3.13;;;17.70;99.90;;;;;;5032244;28;20785;-36
2022/06/20 09:15:51;;;;;;;3.67;3.10;;;18.00;99.90;;;;;;5032014;28;20417;-37
2022/06/20 09:18:35;;;;;;;4.57;3.23;;;18.40;99.90;;;;;;5031403;28;20413;-37
2022/06/20 09:21:29;;;;;;;3.73;3.43;;;18.70;99.90;;;;;;5030338;28;20413;-37
2022/06/20 09:24:05;;;;;;;3.23;2.93;;;18.60;99.90;;;;;;5030476;28;20437;-37
2022/06/20 09:27:02;;;;;;;3.67;2.30;;;18.40;99.90;;;;;;5031594;28;20943;-37
2022/06/20 09:29:52;;;;;;;4.23;2.20;;;18.40;99.90;;;;;;5031680;28;20425;-37
2022/06/20 09:32:46;;;;;;;3.07;1.97;;;18.40;99.90;;;;;;5031482;28;20421;-37
2022/06/20 09:35:39;;;;;;;3.17;2.03;;;18.30;99.90;;;;;;5030497;28;20422;-37
2022/06/20 09:38:38;;;;;;;4.27;2.00;;;18.20;99.90;;;;;;5030838;28;20428;-37
2022/06/20 09:41:20;;;;;;;2.80;2.00;;;18.20;99.90;;;;;;5031552;28;20417;-36
2022/06/20 09:44:31;;;;;;;3.17;2.03;;;18.10;99.90;;;;;;5031494;28;20504;-37
2022/06/20 09:47:10;;;;;;;4.43;2.00;;;17.80;99.90;;;;;;4988294;28;20438;-37
2022/06/20 09:49:45;;;;;;;3.60;2.03;;;17.80;99.90;;;;;;5031428;28;20435;-37
2022/06/20 09:52:32;;;;;;;3.90;2.40;;;18.00;99.90;;;;;;5032232;28;20452;-37
2022/06/20 09:55:36;;;;;;;3.50;2.93;;;18.30;99.90;;;;;;5031099;28;20923;-37
2022/06/20 09:58:18;;;;;;;2.53;2.00;;;18.60;99.90;;;;;;4988339;28;20513;-37
2022/06/20 10:01:42;;;;;;;3.00;2.30;;;19.10;99.90;;;;;;4989037;28;20443;-36
2022/06/20 10:04:28;;;;;;;2.53;2.30;;;19.40;99.90;;;;;;4987358;28;20948;-37
2022/06/20 10:07:31;;;;;;;6.30;2.50;;;19.40;99.90;;;;;;5030415;28;20447;-37
2022/06/20 10:10:33;;;;;;;5.80;2.57;;;19.30;99.90;;;;;;5030991;28;20428;-37
2022/06/20 10:13:11;;;;;;;5.30;2.90;;;19.30;99.90;;;;;;5030956;28;20474;-37
2022/06/20 10:16:08;;;;;;;5.87;2.87;;;19.50;99.90;;;;;;5030878;28;20417;-37
2022/06/20 10:18:46;;;;;;;4.70;3.20;;;19.60;99.90;;;;;;5029214;28;20413;-37
2022/06/20 10:21:23;;;;;;;4.83;3.07;;;19.50;99.90;;;;;;5029296;28;20421;-37
2022/06/20 10:24:07;;;;;;;6.43;3.27;;;19.40;99.90;;;;;;5030717;28;20765;-37
2022/06/20 10:26:48;;;;;;;5.50;3.17;;;19.50;99.90;;;;;;5030393;28;21134;-37
2022/06/20 10:29:38;;;;;;;4.50;3.60;;;19.40;99.90;;;;;;5030553;28;20410;-37
2022/06/20 10:32:59;;;;;;;4.70;3.40;;;19.40;99.90;;;;;;5030624;28;20429;-37
2022/06/20 10:35:32;;;;;;;7.63;2.90;;;19.30;99.90;;;;;;4987544;28;20490;-37
2022/06/20 10:38:06;;;;;;;2.90;2.30;;;19.20;99.90;;;;;;5017929;28;20912;-37
2022/06/20 10:40:53;;;;;;;4.23;2.13;;;19.40;99.90;;;;;;5030399;28;20525;-37
2022/06/20 10:43:48;;;;;;;5.70;2.97;;;19.50;99.90;;;;;;5030393;28;20453;-37
2022/06/20 10:46:36;;;;;;;4.13;2.67;;;19.40;99.20;;;;;;5030523;28;20421;-37
2022/06/20 10:49:26;;;;;;;6.80;2.70;;;19.20;99.90;;;;;;5032094;28;20809;-37
2022/06/20 10:52:10;;;;;;;3.20;2.67;;;19.10;99.90;;;;;;5030274;28;20417;-37
2022/06/20 10:54:43;;;;;;;3.50;2.33;;;19.10;99.90;;;;;;5026971;28;20409;-37
2022/06/20 10:57:36;;;;;;;3.30;2.77;;;19.20;99.90;;;;;;5023539;28;20784;-37
2022/06/20 11:00:10;;;;;;;5.43;3.30;;;19.30;99.90;;;;;;5030003;28;20804;-37
2022/06/20 11:03:07;;;;;;;3.60;2.40;;;19.50;99.90;;;;;;5030060;28;20461;-37
2022/06/20 11:06:03;;;;;;;3.40;2.50;;;19.90;99.90;;;;;;5029978;28;20428;-37
2022/06/20 11:08:41;;;;;;;2.90;2.30;;;20.10;99.90;;;;;;5029424;28;20410;-37
2022/06/20 11:11:14;;;;;;;5.87;2.57;;;20.40;99.70;;;;;;5029917;28;20499;-37
2022/06/20 11:13:50;;;;;;;4.37;2.60;;;20.30;97.40;;;;;;5030116;28;20999;-37
2022/06/20 11:16:50;;;;;;;3.70;2.37;;;20.10;98.90;;;;;;5027759;28;20421;-37
2022/06/20 11:19:36;;;;;;;6.03;2.80;;;20.00;98.70;;;;;;5014633;28;20947;-37
2022/06/20 11:22:21;;;;;;;3.57;2.60;;;20.00;99.80;;;;;;5028258;28;20452;-37
2022/06/20 11:25:08;;;;;;;4.93;2.80;;;20.10;99.30;;;;;;5029834;28;21256;-37
2022/06/20 11:27:51;;;;;;;2.90;2.33;;;20.00;99.10;;;;;;5029237;28;20432;-37
2022/06/20 11:30:25;;;;;;;5.93;2.73;;;20.00;99.40;;;;;;5032071;28;20412;-37
2022/06/20 11:33:05;;;;;;;3.00;2.10;;;20.10;99.00;;;;;;5032616;28;20429;-37
2022/06/20 11:35:31;;;;;;;2.70;2.50;;;20.00;97.50;;;;;;5033693;28;20429;-37
2022/06/20 11:38:22;;;;;;;2.67;2.47;;;20.10;97.20;;;;;;5032034;28;20745;-37
2022/06/20 11:41:01;;;;;;;4.37;2.90;;;20.00;96.70;;;;;;5033792;28;20183;-37
2022/06/20 11:43:29;;;;;;;3.60;2.90;;;20.10;97.40;;;;;;5033542;28;20494;-37
2022/06/20 11:46:04;;;;;;;4.43;2.97;;;20.10;97.90;;;;;;5033545;28;20440;-37
2022/06/20 11:48:39;;;;;;;3.70;2.40;;;20.10;98.20;;;;;;5033811;28;20499;-37
2022/06/20 11:51:19;;;;;;;3.50;2.73;;;20.10;98.40;;;;;;5043628;28;20500;-37
2022/06/20 11:54:12;;;;;;;3.40;3.10;;;20.10;97.80;;;;;;5033265;28;20421;-37
2022/06/20 11:56:48;;;;;;;3.23;2.70;;;20.30;98.50;;;;;;5032659;28;20504;-37
2022/06/20 11:59:47;;;;;;;3.30;2.50;;;20.40;97.90;;;;;;5033414;28;20417;-37
2022/06/20 12:02:48;;;;;;;5.50;2.60;;;20.40;96.90;;;;;;5033246;28;20555;-37
2022/06/20 12:05:32;;;;;;;3.53;2.80;;;20.30;95.80;;;;;;5033363;28;20421;-37
2022/06/20 12:08:08;;;;;;;3.23;2.67;;;20.00;95.60;;;;;;5032524;28;20416;-37
2022/06/20 12:10:40;;;;;;;4.60;2.77;;;20.00;97.10;;;;;;5032930;28;20492;-37
2022/06/20 12:13:33;;;;;;;3.83;2.40;;;20.10;97.50;;;;;;5033031;28;20427;-37
2022/06/20 12:16:33;;;;;;;2.70;2.37;;;20.10;97.60;;;;;;5031923;28;20854;-37
2022/06/20 12:25:12;;;;;;;2.47;2.20;;;20.90;97.60;;;;;;5032903;28;20421;-38
2022/06/20 12:27:38;;;;;;;3.77;2.53;;;21.10;97.30;;;;;;5032189;28;20988;-37
2022/06/20 12:30:11;;;;;;;4.60;2.50;;;21.30;97.00;;;;;;5032983;28;20547;-37
2022/06/20 12:32:37;;;;;;;3.83;1.80;;;21.20;95.90;;;;;;5032828;28;20194;-37
2022/06/20 12:35:11;;;;;;;3.77;2.70;;;20.90;95.10;;;;;;5032880;28;20753;-37
2022/06/20 12:37:51;;;;;;;6.23;2.77;;;20.80;96.90;;;;;;5031960;28;20571;-37
2022/06/20 12:40:34;;;;;;;3.77;2.33;;;20.70;97.40;;;;;;5032526;28;20429;-37
2022/06/20 12:43:13;;;;;;;3.67;2.50;;;20.70;96.10;;;;;;5032213;28;20465;-38
2022/06/20 12:45:54;;;;;;;6.17;2.70;;;20.90;96.50;;;;;;5032439;28;20933;-37
2022/06/20 12:48:44;;;;;;;6.30;3.00;;;21.10;97.60;;;;;;5031842;28;20425;-37
2022/06/20 12:51:42;;;;;;;5.30;3.07;;;21.30;96.40;;;;;;5023397;28;20417;-37
2022/06/20 12:54:30;;;;;;;5.60;3.13;;;21.50;96.90;;;;;;5023168;28;20425;-37
2022/06/20 12:57:17;;;;;;;4.47;3.20;;;21.70;96.30;;;;;;5031772;28;20421;-38
2022/06/20 12:59:53;;;;;;;4.30;2.40;;;21.70;95.80;;;;;;5032101;28;20429;-37
2022/06/20 13:02:30;;;;;;;5.40;3.23;;;21.70;95.10;;;;;;5032132;28;20460;-37
2022/06/20 13:05:04;;;;;;;2.90;2.40;;;21.30;94.40;;;;;;5032183;28;20436;-38
2022/06/20 13:07:53;;;;;;;5.47;3.07;;;21.20;95.70;;;;;;5031662;28;20421;-37
2022/06/20 13:10:24;;;;;;;3.17;2.87;;;20.90;96.10;;;;;;5032005;28;20547;-37
2022/06/20 13:13:06;;;;;;;5.37;3.40;;;20.90;96.40;;;;;;5031893;28;20453;-37
2022/06/20 13:15:41;;;;;;;3.50;2.50;;;21.00;95.60;;;;;;5032074;28;20885;-37
2022/06/20 13:18:34;;;;;;;3.63;2.70;;;20.80;95.80;;;;;;5031504;28;20863;-37
2022/06/20 13:21:36;;;;;;;5.40;3.77;;;20.70;96.50;;;;;;5030443;28;20424;-37
2022/06/20 13:24:14;;;;;;;9.03;3.27;;;20.80;96.40;;;;;;5031725;28;20440;-37
2022/06/20 13:27:08;;;;;;;8.13;3.30;;;20.70;96.40;;;;;;5031535;28;20547;-37
2022/06/20 13:30:13;;;;;;;4.53;3.10;;;20.60;96.20;;;;;;5031479;28;20421;-37
2022/06/20 13:32:42;;;;;;;7.97;3.37;;;20.60;96.70;;;;;;5031864;28;20539;-37
2022/06/20 13:35:26;;;;;;;7.20;3.23;;;20.60;97.20;;;;;;5031822;28;20423;-37
2022/06/20 13:38:16;;;;;;;7.00;2.60;;;20.80;96.70;;;;;;5030883;28;20487;-37
2022/06/20 13:40:53;;;;;;;3.87;2.07;;;21.00;96.60;;;;;;5031483;28;20927;-37
2022/06/20 13:43:57;;;;;;;5.67;2.27;;;21.00;93.80;;;;;;5031626;28;20472;-37
2022/06/20 13:46:26;;;;;;;2.67;2.30;;;21.00;94.40;;;;;;5031444;28;20475;-37
2022/06/20 13:49:16;;;;;;;4.80;2.57;;;21.10;94.40;;;;;;5034805;28;20424;-37
2022/06/20 13:52:00;;;;;;;5.80;3.00;;;20.90;94.80;;;;;;5036928;28;20464;-37
2022/06/20 13:54:34;;;;;;;3.77;2.90;;;20.80;95.00;;;;;;5031198;28;20425;-37
2022/06/20 13:57:17;;;;;;;5.30;3.00;;;20.70;94.80;;;;;;5030553;28;20425;-37
2022/06/20 14:00:16;;;;;;;4.10;2.93;;;20.70;94.90;;;;;;5031220;28;20494;-37
2022/06/20 14:02:46;;;;;;;4.70;3.10;;;20.70;95.00;;;;;;5030938;28;20510;-37
2022/06/20 14:05:17;;;;;;;5.47;2.77;;;20.70;95.00;;;;;;5031119;28;20429;-37